sensor_id;sensor_type;location;lat;lon;timestamp;P1;durP1;ratioP1;P2;durP2;ratioP2
44810;SDS011;30526;52.184;4.476;2022-12-04T00:02:06;42.93;;;16.10;;
44810;SDS011;30526;52.184;4.476;2022-12-04T00:04:32;50.72;;;20.83;;
44810;SDS011;30526;52.184;4.476;2022-12-04T00:06:58;57.35;;;21.35;;
44810;SDS011;30526;52.184;4.476;2022-12-04T00:09:24;60.70;;;22.17;;
44810;SDS011;30526;52.184;4.476;2022-12-04T00:11:50;58.05;;;22.17;;
44810;SDS011;30526;52.184;4.476;2022-12-04T00:14:16;56.35;;;23.00;;
44810;SDS011;30526;52.184;4.476;2022-12-04T00:16:42;56.17;;;22.17;;
44810;SDS011;30526;52.184;4.476;2022-12-04T00:19:09;58.63;;;22.02;;
44810;SDS011;30526;52.184;4.476;2022-12-04T00:21:35;58.20;;;22.15;;
44810;SDS011;30526;52.184;4.476;2022-12-04T00:24:01;55.58;;;21.48;;
44810;SDS011;30526;52.184;4.476;2022-12-04T00:26:27;59.83;;;22.92;;
44810;SDS011;30526;52.184;4.476;2022-12-04T00:28:55;56.65;;;21.45;;
44810;SDS011;30526;52.184;4.476;2022-12-04T00:31:25;62.22;;;23.13;;
44810;SDS011;30526;52.184;4.476;2022-12-04T00:33:52;55.00;;;22.08;;
44810;SDS011;30526;52.184;4.476;2022-12-04T00:36:20;60.13;;;23.30;;
44810;SDS011;30526;52.184;4.476;2022-12-04T00:38:47;58.72;;;22.42;;
44810;SDS011;30526;52.184;4.476;2022-12-04T00:41:14;61.78;;;23.27;;
44810;SDS011;30526;52.184;4.476;2022-12-04T00:43:41;59.65;;;23.13;;
44810;SDS011;30526;52.184;4.476;2022-12-04T00:46:07;44.05;;;17.10;;
44810;SDS011;30526;52.184;4.476;2022-12-04T00:48:33;51.13;;;17.05;;
44810;SDS011;30526;52.184;4.476;2022-12-04T00:51:03;44.88;;;21.45;;
44810;SDS011;30526;52.184;4.476;2022-12-04T00:53:30;58.42;;;23.77;;
44810;SDS011;30526;52.184;4.476;2022-12-04T00:55:56;58.97;;;21.95;;
44810;SDS011;30526;52.184;4.476;2022-12-04T00:58:22;56.85;;;21.65;;
44810;SDS011;30526;52.184;4.476;2022-12-04T01:00:48;63.40;;;23.35;;
44810;SDS011;30526;52.184;4.476;2022-12-04T01:03:14;63.88;;;24.02;;
44810;SDS011;30526;52.184;4.476;2022-12-04T01:05:41;59.92;;;22.25;;
44810;SDS011;30526;52.184;4.476;2022-12-04T01:08:08;68.97;;;24.92;;
44810;SDS011;30526;52.184;4.476;2022-12-04T01:10:36;46.17;;;18.15;;
44810;SDS011;30526;52.184;4.476;2022-12-04T01:13:02;59.33;;;22.70;;
44810;SDS011;30526;52.184;4.476;2022-12-04T01:15:28;65.95;;;24.88;;
44810;SDS011;30526;52.184;4.476;2022-12-04T01:17:54;60.42;;;23.55;;
44810;SDS011;30526;52.184;4.476;2022-12-04T01:20:20;68.00;;;24.08;;
44810;SDS011;30526;52.184;4.476;2022-12-04T01:22:46;65.40;;;25.35;;
44810;SDS011;30526;52.184;4.476;2022-12-04T01:25:12;71.40;;;24.02;;
44810;SDS011;30526;52.184;4.476;2022-12-04T01:27:38;64.32;;;24.25;;
44810;SDS011;30526;52.184;4.476;2022-12-04T01:30:04;63.13;;;24.52;;
44810;SDS011;30526;52.184;4.476;2022-12-04T01:32:31;51.53;;;19.27;;
44810;SDS011;30526;52.184;4.476;2022-12-04T01:34:57;63.90;;;23.50;;
44810;SDS011;30526;52.184;4.476;2022-12-04T01:37:23;67.57;;;24.48;;
44810;SDS011;30526;52.184;4.476;2022-12-04T01:39:49;60.40;;;24.73;;
44810;SDS011;30526;52.184;4.476;2022-12-04T01:42:15;63.85;;;24.75;;
44810;SDS011;30526;52.184;4.476;2022-12-04T01:44:42;60.85;;;23.23;;
44810;SDS011;30526;52.184;4.476;2022-12-04T01:47:09;69.20;;;25.35;;
44810;SDS011;30526;52.184;4.476;2022-12-04T01:49:40;49.47;;;18.90;;
44810;SDS011;30526;52.184;4.476;2022-12-04T01:54:38;62.08;;;23.35;;
44810;SDS011;30526;52.184;4.476;2022-12-04T01:57:06;72.50;;;24.92;;
44810;SDS011;30526;52.184;4.476;2022-12-04T01:59:38;63.10;;;24.90;;
44810;SDS011;30526;52.184;4.476;2022-12-04T02:02:09;64.15;;;23.88;;
44810;SDS011;30526;52.184;4.476;2022-12-04T02:04:36;68.25;;;26.30;;
44810;SDS011;30526;52.184;4.476;2022-12-04T02:07:03;53.08;;;19.70;;
44810;SDS011;30526;52.184;4.476;2022-12-04T02:09:29;51.92;;;18.13;;
44810;SDS011;30526;52.184;4.476;2022-12-04T02:12:00;46.45;;;18.70;;
44810;SDS011;30526;52.184;4.476;2022-12-04T02:14:44;63.03;;;23.42;;
44810;SDS011;30526;52.184;4.476;2022-12-04T02:17:21;62.25;;;24.08;;
44810;SDS011;30526;52.184;4.476;2022-12-04T02:28:31;61.45;;;22.92;;
44810;SDS011;30526;52.184;4.476;2022-12-04T02:30:31;44.28;;;18.65;;
44810;SDS011;30526;52.184;4.476;2022-12-04T02:33:42;71.35;;;25.40;;
44810;SDS011;30526;52.184;4.476;2022-12-04T02:35:58;62.53;;;24.58;;
44810;SDS011;30526;52.184;4.476;2022-12-04T02:43:42;63.00;;;23.73;;
44810;SDS011;30526;52.184;4.476;2022-12-04T02:46:10;48.47;;;19.48;;
44810;SDS011;30526;52.184;4.476;2022-12-04T02:48:39;65.00;;;24.08;;
44810;SDS011;30526;52.184;4.476;2022-12-04T02:51:05;48.92;;;20.17;;
44810;SDS011;30526;52.184;4.476;2022-12-04T02:53:33;53.42;;;20.92;;
44810;SDS011;30526;52.184;4.476;2022-12-04T02:56:05;65.45;;;24.80;;
44810;SDS011;30526;52.184;4.476;2022-12-04T02:58:35;65.38;;;25.85;;
44810;SDS011;30526;52.184;4.476;2022-12-04T03:01:05;63.03;;;24.50;;
44810;SDS011;30526;52.184;4.476;2022-12-04T03:03:43;68.38;;;26.23;;
44810;SDS011;30526;52.184;4.476;2022-12-04T03:06:12;78.63;;;27.20;;
44810;SDS011;30526;52.184;4.476;2022-12-04T03:08:47;49.70;;;18.88;;
44810;SDS011;30526;52.184;4.476;2022-12-04T03:11:15;56.90;;;19.90;;
44810;SDS011;30526;52.184;4.476;2022-12-04T03:16:43;56.33;;;22.92;;
44810;SDS011;30526;52.184;4.476;2022-12-04T03:19:15;67.25;;;24.83;;
44810;SDS011;30526;52.184;4.476;2022-12-04T03:21:45;72.47;;;27.42;;
44810;SDS011;30526;52.184;4.476;2022-12-04T03:24:17;58.97;;;24.70;;
44810;SDS011;30526;52.184;4.476;2022-12-04T03:26:45;65.03;;;25.20;;
44810;SDS011;30526;52.184;4.476;2022-12-04T03:29:13;65.07;;;25.70;;
44810;SDS011;30526;52.184;4.476;2022-12-04T03:31:44;60.17;;;23.95;;
44810;SDS011;30526;52.184;4.476;2022-12-04T03:34:12;66.32;;;25.48;;
44810;SDS011;30526;52.184;4.476;2022-12-04T03:36:41;61.83;;;24.67;;
44810;SDS011;30526;52.184;4.476;2022-12-04T03:39:16;66.05;;;26.33;;
44810;SDS011;30526;52.184;4.476;2022-12-04T03:42:01;65.13;;;24.98;;
44810;SDS011;30526;52.184;4.476;2022-12-04T03:47:00;64.78;;;24.08;;
44810;SDS011;30526;52.184;4.476;2022-12-04T03:51:58;72.00;;;26.92;;
44810;SDS011;30526;52.184;4.476;2022-12-04T03:54:27;73.68;;;25.98;;
44810;SDS011;30526;52.184;4.476;2022-12-04T03:56:55;64.43;;;25.45;;
44810;SDS011;30526;52.184;4.476;2022-12-04T04:01:48;43.78;;;17.80;;
44810;SDS011;30526;52.184;4.476;2022-12-04T04:04:20;63.22;;;25.52;;
44810;SDS011;30526;52.184;4.476;2022-12-04T04:06:49;65.18;;;25.13;;
44810;SDS011;30526;52.184;4.476;2022-12-04T04:09:18;69.97;;;24.98;;
44810;SDS011;30526;52.184;4.476;2022-12-04T04:14:43;66.32;;;24.83;;
44810;SDS011;30526;52.184;4.476;2022-12-04T04:17:29;69.07;;;26.33;;
44810;SDS011;30526;52.184;4.476;2022-12-04T04:20:15;66.63;;;25.40;;
44810;SDS011;30526;52.184;4.476;2022-12-04T04:23:02;64.68;;;24.25;;
44810;SDS011;30526;52.184;4.476;2022-12-04T04:25:48;48.43;;;19.27;;
44810;SDS011;30526;52.184;4.476;2022-12-04T04:28:29;65.65;;;26.25;;
44810;SDS011;30526;52.184;4.476;2022-12-04T04:30:58;70.63;;;25.55;;
44810;SDS011;30526;52.184;4.476;2022-12-04T04:33:26;70.45;;;25.23;;
44810;SDS011;30526;52.184;4.476;2022-12-04T04:35:56;47.90;;;18.60;;
44810;SDS011;30526;52.184;4.476;2022-12-04T04:40:56;65.72;;;25.73;;
44810;SDS011;30526;52.184;4.476;2022-12-04T04:45:51;63.40;;;25.42;;
44810;SDS011;30526;52.184;4.476;2022-12-04T04:50:47;61.60;;;24.63;;
44810;SDS011;30526;52.184;4.476;2022-12-04T04:53:15;53.03;;;19.58;;
44810;SDS011;30526;52.184;4.476;2022-12-04T04:55:42;66.72;;;25.13;;
44810;SDS011;30526;52.184;4.476;2022-12-04T04:58:14;62.85;;;24.33;;
44810;SDS011;30526;52.184;4.476;2022-12-04T05:00:40;63.50;;;24.98;;
44810;SDS011;30526;52.184;4.476;2022-12-04T05:03:10;68.70;;;25.02;;
44810;SDS011;30526;52.184;4.476;2022-12-04T05:05:37;65.25;;;25.85;;
44810;SDS011;30526;52.184;4.476;2022-12-04T05:08:03;67.05;;;26.10;;
44810;SDS011;30526;52.184;4.476;2022-12-04T05:10:29;66.25;;;25.38;;
44810;SDS011;30526;52.184;4.476;2022-12-04T05:12:55;66.20;;;26.10;;
44810;SDS011;30526;52.184;4.476;2022-12-04T05:15:21;64.25;;;26.48;;
44810;SDS011;30526;52.184;4.476;2022-12-04T05:17:47;69.40;;;25.98;;
44810;SDS011;30526;52.184;4.476;2022-12-04T05:20:13;61.72;;;24.83;;
44810;SDS011;30526;52.184;4.476;2022-12-04T05:22:39;65.80;;;25.67;;
44810;SDS011;30526;52.184;4.476;2022-12-04T05:25:05;63.75;;;25.98;;
44810;SDS011;30526;52.184;4.476;2022-12-04T05:27:31;45.72;;;17.70;;
44810;SDS011;30526;52.184;4.476;2022-12-04T05:29:59;67.40;;;25.58;;
44810;SDS011;30526;52.184;4.476;2022-12-04T05:32:25;61.22;;;25.38;;
44810;SDS011;30526;52.184;4.476;2022-12-04T05:34:52;47.03;;;18.80;;
44810;SDS011;30526;52.184;4.476;2022-12-04T05:37:18;51.35;;;19.15;;
44810;SDS011;30526;52.184;4.476;2022-12-04T05:39:45;69.88;;;26.52;;
44810;SDS011;30526;52.184;4.476;2022-12-04T05:42:11;43.63;;;17.10;;
44810;SDS011;30526;52.184;4.476;2022-12-04T05:44:37;45.72;;;18.73;;
44810;SDS011;30526;52.184;4.476;2022-12-04T05:47:03;67.13;;;24.40;;
44810;SDS011;30526;52.184;4.476;2022-12-04T05:49:30;61.75;;;24.90;;
44810;SDS011;30526;52.184;4.476;2022-12-04T05:51:56;50.33;;;18.55;;
44810;SDS011;30526;52.184;4.476;2022-12-04T05:54:22;69.28;;;25.80;;
44810;SDS011;30526;52.184;4.476;2022-12-04T05:56:48;63.58;;;25.13;;
44810;SDS011;30526;52.184;4.476;2022-12-04T05:59:15;56.63;;;24.05;;
44810;SDS011;30526;52.184;4.476;2022-12-04T06:01:41;50.10;;;18.60;;
44810;SDS011;30526;52.184;4.476;2022-12-04T06:04:07;66.80;;;26.73;;
44810;SDS011;30526;52.184;4.476;2022-12-04T06:06:33;72.30;;;26.58;;
44810;SDS011;30526;52.184;4.476;2022-12-04T06:08:59;61.53;;;24.45;;
44810;SDS011;30526;52.184;4.476;2022-12-04T06:11:27;64.75;;;25.85;;
44810;SDS011;30526;52.184;4.476;2022-12-04T06:13:53;68.88;;;25.83;;
44810;SDS011;30526;52.184;4.476;2022-12-04T06:18:50;67.80;;;26.27;;
44810;SDS011;30526;52.184;4.476;2022-12-04T06:21:16;68.07;;;25.92;;
44810;SDS011;30526;52.184;4.476;2022-12-04T06:23:42;60.17;;;20.93;;
44810;SDS011;30526;52.184;4.476;2022-12-04T06:26:08;68.78;;;25.77;;
44810;SDS011;30526;52.184;4.476;2022-12-04T06:28:34;70.70;;;27.40;;
44810;SDS011;30526;52.184;4.476;2022-12-04T06:31:04;44.63;;;18.48;;
44810;SDS011;30526;52.184;4.476;2022-12-04T06:33:31;70.75;;;26.20;;
44810;SDS011;30526;52.184;4.476;2022-12-04T06:36:01;67.97;;;27.02;;
44810;SDS011;30526;52.184;4.476;2022-12-04T06:38:27;71.63;;;26.55;;
44810;SDS011;30526;52.184;4.476;2022-12-04T06:40:53;55.60;;;20.03;;
44810;SDS011;30526;52.184;4.476;2022-12-04T06:43:19;73.78;;;27.77;;
44810;SDS011;30526;52.184;4.476;2022-12-04T06:45:46;69.43;;;26.70;;
44810;SDS011;30526;52.184;4.476;2022-12-04T06:48:12;64.28;;;25.42;;
44810;SDS011;30526;52.184;4.476;2022-12-04T06:50:38;67.95;;;26.67;;
44810;SDS011;30526;52.184;4.476;2022-12-04T06:53:04;67.68;;;26.52;;
44810;SDS011;30526;52.184;4.476;2022-12-04T06:55:30;69.40;;;27.73;;
44810;SDS011;30526;52.184;4.476;2022-12-04T06:57:56;71.72;;;27.95;;
44810;SDS011;30526;52.184;4.476;2022-12-04T07:00:22;68.63;;;26.70;;
44810;SDS011;30526;52.184;4.476;2022-12-04T07:02:48;64.25;;;25.70;;
44810;SDS011;30526;52.184;4.476;2022-12-04T07:05:14;68.85;;;26.25;;
44810;SDS011;30526;52.184;4.476;2022-12-04T07:07:40;68.80;;;25.73;;
44810;SDS011;30526;52.184;4.476;2022-12-04T07:10:06;68.57;;;26.17;;
44810;SDS011;30526;52.184;4.476;2022-12-04T07:12:32;61.08;;;25.80;;
44810;SDS011;30526;52.184;4.476;2022-12-04T07:14:58;65.25;;;27.00;;
44810;SDS011;30526;52.184;4.476;2022-12-04T07:17:24;60.55;;;23.95;;
44810;SDS011;30526;52.184;4.476;2022-12-04T07:19:50;68.70;;;27.27;;
44810;SDS011;30526;52.184;4.476;2022-12-04T07:22:16;73.78;;;25.38;;
44810;SDS011;30526;52.184;4.476;2022-12-04T07:24:42;72.40;;;26.50;;
44810;SDS011;30526;52.184;4.476;2022-12-04T07:27:08;65.22;;;26.25;;
44810;SDS011;30526;52.184;4.476;2022-12-04T07:29:34;67.57;;;26.13;;
44810;SDS011;30526;52.184;4.476;2022-12-04T07:32:00;69.55;;;25.33;;
44810;SDS011;30526;52.184;4.476;2022-12-04T07:34:26;70.03;;;25.48;;
44810;SDS011;30526;52.184;4.476;2022-12-04T07:36:52;63.38;;;24.63;;
44810;SDS011;30526;52.184;4.476;2022-12-04T07:39:18;62.83;;;24.55;;
44810;SDS011;30526;52.184;4.476;2022-12-04T07:41:44;66.57;;;24.30;;
44810;SDS011;30526;52.184;4.476;2022-12-04T07:44:10;58.75;;;24.27;;
44810;SDS011;30526;52.184;4.476;2022-12-04T07:46:36;66.25;;;25.05;;
44810;SDS011;30526;52.184;4.476;2022-12-04T07:49:02;65.65;;;25.88;;
44810;SDS011;30526;52.184;4.476;2022-12-04T07:51:28;64.35;;;24.42;;
44810;SDS011;30526;52.184;4.476;2022-12-04T07:53:55;62.80;;;24.90;;
44810;SDS011;30526;52.184;4.476;2022-12-04T07:56:24;62.47;;;26.40;;
44810;SDS011;30526;52.184;4.476;2022-12-04T07:58:50;67.65;;;25.70;;
44810;SDS011;30526;52.184;4.476;2022-12-04T08:01:17;61.63;;;24.75;;
44810;SDS011;30526;52.184;4.476;2022-12-04T08:03:44;75.00;;;25.10;;
44810;SDS011;30526;52.184;4.476;2022-12-04T08:06:10;45.05;;;18.88;;
44810;SDS011;30526;52.184;4.476;2022-12-04T08:08:36;59.85;;;24.48;;
44810;SDS011;30526;52.184;4.476;2022-12-04T08:11:06;57.83;;;23.75;;
44810;SDS011;30526;52.184;4.476;2022-12-04T08:13:32;65.43;;;24.20;;
44810;SDS011;30526;52.184;4.476;2022-12-04T08:16:02;60.97;;;25.20;;
44810;SDS011;30526;52.184;4.476;2022-12-04T08:18:28;60.72;;;24.67;;
44810;SDS011;30526;52.184;4.476;2022-12-04T08:21:01;50.63;;;19.60;;
44810;SDS011;30526;52.184;4.476;2022-12-04T08:23:27;64.50;;;23.77;;
44810;SDS011;30526;52.184;4.476;2022-12-04T08:25:53;59.83;;;24.30;;
44810;SDS011;30526;52.184;4.476;2022-12-04T08:28:19;63.88;;;24.15;;
44810;SDS011;30526;52.184;4.476;2022-12-04T08:30:45;59.63;;;24.13;;
44810;SDS011;30526;52.184;4.476;2022-12-04T08:33:11;65.65;;;26.48;;
44810;SDS011;30526;52.184;4.476;2022-12-04T08:35:37;63.42;;;26.48;;
44810;SDS011;30526;52.184;4.476;2022-12-04T08:38:03;59.30;;;24.42;;
44810;SDS011;30526;52.184;4.476;2022-12-04T08:40:29;69.65;;;27.20;;
44810;SDS011;30526;52.184;4.476;2022-12-04T08:42:55;65.70;;;25.52;;
44810;SDS011;30526;52.184;4.476;2022-12-04T08:45:21;68.93;;;25.63;;
44810;SDS011;30526;52.184;4.476;2022-12-04T08:47:47;60.97;;;25.23;;
44810;SDS011;30526;52.184;4.476;2022-12-04T08:50:13;70.18;;;26.17;;
44810;SDS011;30526;52.184;4.476;2022-12-04T08:52:39;68.20;;;26.42;;
44810;SDS011;30526;52.184;4.476;2022-12-04T08:55:05;69.10;;;26.80;;
44810;SDS011;30526;52.184;4.476;2022-12-04T08:57:31;59.38;;;24.73;;
44810;SDS011;30526;52.184;4.476;2022-12-04T08:59:57;60.80;;;25.45;;
44810;SDS011;30526;52.184;4.476;2022-12-04T09:02:23;62.15;;;26.02;;
44810;SDS011;30526;52.184;4.476;2022-12-04T09:04:49;66.00;;;25.30;;
44810;SDS011;30526;52.184;4.476;2022-12-04T09:07:15;69.78;;;25.83;;
44810;SDS011;30526;52.184;4.476;2022-12-04T09:09:41;61.47;;;26.27;;
44810;SDS011;30526;52.184;4.476;2022-12-04T09:12:07;67.30;;;26.70;;
44810;SDS011;30526;52.184;4.476;2022-12-04T09:14:33;71.32;;;27.60;;
44810;SDS011;30526;52.184;4.476;2022-12-04T09:17:00;59.70;;;24.25;;
44810;SDS011;30526;52.184;4.476;2022-12-04T09:19:26;67.05;;;26.27;;
44810;SDS011;30526;52.184;4.476;2022-12-04T09:21:52;64.03;;;24.60;;
44810;SDS011;30526;52.184;4.476;2022-12-04T09:24:18;49.17;;;19.83;;
44810;SDS011;30526;52.184;4.476;2022-12-04T09:26:44;65.68;;;26.63;;
44810;SDS011;30526;52.184;4.476;2022-12-04T09:29:10;72.18;;;26.85;;
44810;SDS011;30526;52.184;4.476;2022-12-04T09:31:37;76.25;;;27.58;;
44810;SDS011;30526;52.184;4.476;2022-12-04T09:34:03;67.05;;;25.30;;
44810;SDS011;30526;52.184;4.476;2022-12-04T09:36:29;66.78;;;26.55;;
44810;SDS011;30526;52.184;4.476;2022-12-04T09:38:56;61.72;;;25.52;;
44810;SDS011;30526;52.184;4.476;2022-12-04T09:43:59;66.88;;;26.70;;
44810;SDS011;30526;52.184;4.476;2022-12-04T09:46:34;63.42;;;25.48;;
44810;SDS011;30526;52.184;4.476;2022-12-04T09:49:02;70.63;;;26.63;;
44810;SDS011;30526;52.184;4.476;2022-12-04T09:51:29;63.65;;;25.80;;
44810;SDS011;30526;52.184;4.476;2022-12-04T09:56:23;72.65;;;27.05;;
44810;SDS011;30526;52.184;4.476;2022-12-04T09:58:52;61.92;;;24.77;;
44810;SDS011;30526;52.184;4.476;2022-12-04T10:03:46;61.88;;;26.52;;
44810;SDS011;30526;52.184;4.476;2022-12-04T10:06:20;64.32;;;25.67;;
44810;SDS011;30526;52.184;4.476;2022-12-04T10:09:02;65.07;;;25.08;;
44810;SDS011;30526;52.184;4.476;2022-12-04T10:11:38;65.90;;;25.52;;
44810;SDS011;30526;52.184;4.476;2022-12-04T10:14:20;49.47;;;20.63;;
44810;SDS011;30526;52.184;4.476;2022-12-04T10:24:34;62.40;;;25.15;;
44810;SDS011;30526;52.184;4.476;2022-12-04T10:27:05;64.68;;;26.08;;
44810;SDS011;30526;52.184;4.476;2022-12-04T10:29:34;64.47;;;25.08;;
44810;SDS011;30526;52.184;4.476;2022-12-04T10:35:23;62.50;;;23.23;;
44810;SDS011;30526;52.184;4.476;2022-12-04T10:40:27;48.63;;;19.52;;
44810;SDS011;30526;52.184;4.476;2022-12-04T10:42:56;56.45;;;23.70;;
44810;SDS011;30526;52.184;4.476;2022-12-04T10:45:23;56.50;;;23.65;;
44810;SDS011;30526;52.184;4.476;2022-12-04T10:47:49;61.30;;;24.27;;
44810;SDS011;30526;52.184;4.476;2022-12-04T10:50:17;38.83;;;16.95;;
44810;SDS011;30526;52.184;4.476;2022-12-04T10:52:44;56.95;;;22.13;;
44810;SDS011;30526;52.184;4.476;2022-12-04T10:55:11;51.40;;;21.15;;
44810;SDS011;30526;52.184;4.476;2022-12-04T10:57:46;42.53;;;16.00;;
44810;SDS011;30526;52.184;4.476;2022-12-04T11:00:23;55.60;;;22.02;;
44810;SDS011;30526;52.184;4.476;2022-12-04T11:02:51;51.78;;;20.85;;
44810;SDS011;30526;52.184;4.476;2022-12-04T11:05:25;40.93;;;16.20;;
44810;SDS011;30526;52.184;4.476;2022-12-04T11:07:52;53.33;;;21.65;;
44810;SDS011;30526;52.184;4.476;2022-12-04T11:10:35;42.90;;;16.85;;
44810;SDS011;30526;52.184;4.476;2022-12-04T11:15:44;54.65;;;20.95;;
44810;SDS011;30526;52.184;4.476;2022-12-04T11:20:49;49.88;;;20.35;;
44810;SDS011;30526;52.184;4.476;2022-12-04T11:23:16;46.95;;;19.48;;
44810;SDS011;30526;52.184;4.476;2022-12-04T11:25:44;38.50;;;14.93;;
44810;SDS011;30526;52.184;4.476;2022-12-04T11:28:12;45.65;;;19.67;;
44810;SDS011;30526;52.184;4.476;2022-12-04T11:30:45;50.75;;;20.10;;
44810;SDS011;30526;52.184;4.476;2022-12-04T11:33:16;53.28;;;20.63;;
44810;SDS011;30526;52.184;4.476;2022-12-04T11:35:51;47.22;;;18.58;;
44810;SDS011;30526;52.184;4.476;2022-12-04T11:38:21;49.88;;;18.92;;
44810;SDS011;30526;52.184;4.476;2022-12-04T11:40:51;49.45;;;19.50;;
44810;SDS011;30526;52.184;4.476;2022-12-04T11:43:17;42.83;;;17.08;;
44810;SDS011;30526;52.184;4.476;2022-12-04T11:46:03;33.47;;;13.88;;
44810;SDS011;30526;52.184;4.476;2022-12-04T11:48:31;33.20;;;14.10;;
44810;SDS011;30526;52.184;4.476;2022-12-04T11:53:51;44.28;;;17.77;;
44810;SDS011;30526;52.184;4.476;2022-12-04T11:58:58;43.17;;;17.00;;
44810;SDS011;30526;52.184;4.476;2022-12-04T12:01:46;42.97;;;16.90;;
44810;SDS011;30526;52.184;4.476;2022-12-04T12:04:19;41.05;;;16.00;;
44810;SDS011;30526;52.184;4.476;2022-12-04T12:09:35;42.72;;;17.65;;
44810;SDS011;30526;52.184;4.476;2022-12-04T12:12:27;37.70;;;16.17;;
44810;SDS011;30526;52.184;4.476;2022-12-04T12:17:36;44.00;;;15.98;;
44810;SDS011;30526;52.184;4.476;2022-12-04T12:20:10;44.47;;;17.45;;
44810;SDS011;30526;52.184;4.476;2022-12-04T12:30:28;45.20;;;17.15;;
44810;SDS011;30526;52.184;4.476;2022-12-04T12:35:29;43.03;;;17.17;;
44810;SDS011;30526;52.184;4.476;2022-12-04T12:37:58;39.05;;;16.42;;
44810;SDS011;30526;52.184;4.476;2022-12-04T12:40:31;41.38;;;15.95;;
44810;SDS011;30526;52.184;4.476;2022-12-04T12:43:00;43.20;;;17.08;;
44810;SDS011;30526;52.184;4.476;2022-12-04T12:45:39;44.63;;;18.05;;
44810;SDS011;30526;52.184;4.476;2022-12-04T12:48:21;43.03;;;16.67;;
44810;SDS011;30526;52.184;4.476;2022-12-04T12:50:54;39.72;;;16.35;;
44810;SDS011;30526;52.184;4.476;2022-12-04T12:53:21;43.53;;;16.52;;
44810;SDS011;30526;52.184;4.476;2022-12-04T12:55:51;42.35;;;16.52;;
44810;SDS011;30526;52.184;4.476;2022-12-04T13:06:17;39.67;;;15.55;;
44810;SDS011;30526;52.184;4.476;2022-12-04T13:08:51;35.10;;;15.40;;
44810;SDS011;30526;52.184;4.476;2022-12-04T13:11:20;41.72;;;15.00;;
44810;SDS011;30526;52.184;4.476;2022-12-04T13:13:48;36.10;;;14.32;;
44810;SDS011;30526;52.184;4.476;2022-12-04T13:27:10;32.78;;;13.30;;
44810;SDS011;30526;52.184;4.476;2022-12-04T13:29:50;35.33;;;14.13;;
44810;SDS011;30526;52.184;4.476;2022-12-04T13:32:43;34.35;;;13.18;;
44810;SDS011;30526;52.184;4.476;2022-12-04T13:35:17;37.60;;;14.95;;
44810;SDS011;30526;52.184;4.476;2022-12-04T13:40:24;29.73;;;14.18;;
44810;SDS011;30526;52.184;4.476;2022-12-04T13:42:52;30.58;;;13.13;;
44810;SDS011;30526;52.184;4.476;2022-12-04T13:45:31;18.92;;;9.63;;
44810;SDS011;30526;52.184;4.476;2022-12-04T13:48:00;30.27;;;12.50;;
44810;SDS011;30526;52.184;4.476;2022-12-04T13:52:52;25.50;;;11.75;;
44810;SDS011;30526;52.184;4.476;2022-12-04T13:57:55;31.35;;;12.45;;
44810;SDS011;30526;52.184;4.476;2022-12-04T14:00:34;27.92;;;10.65;;
44810;SDS011;30526;52.184;4.476;2022-12-04T14:05:45;25.33;;;11.82;;
44810;SDS011;30526;52.184;4.476;2022-12-04T14:10:41;26.73;;;11.77;;
44810;SDS011;30526;52.184;4.476;2022-12-04T14:15:34;23.00;;;10.90;;
44810;SDS011;30526;52.184;4.476;2022-12-04T14:20:37;25.48;;;11.20;;
44810;SDS011;30526;52.184;4.476;2022-12-04T14:25:34;24.95;;;11.05;;
44810;SDS011;30526;52.184;4.476;2022-12-04T14:28:10;25.15;;;11.15;;
44810;SDS011;30526;52.184;4.476;2022-12-04T14:30:36;21.40;;;9.13;;
44810;SDS011;30526;52.184;4.476;2022-12-04T14:33:16;19.43;;;9.67;;
44810;SDS011;30526;52.184;4.476;2022-12-04T14:35:47;22.50;;;10.63;;
44810;SDS011;30526;52.184;4.476;2022-12-04T14:38:15;26.42;;;10.95;;
44810;SDS011;30526;52.184;4.476;2022-12-04T14:40:44;25.88;;;12.02;;
44810;SDS011;30526;52.184;4.476;2022-12-04T14:43:18;27.70;;;11.82;;
44810;SDS011;30526;52.184;4.476;2022-12-04T14:45:47;26.23;;;12.15;;
44810;SDS011;30526;52.184;4.476;2022-12-04T14:51:35;25.80;;;11.60;;
44810;SDS011;30526;52.184;4.476;2022-12-04T14:59:33;29.42;;;13.15;;
44810;SDS011;30526;52.184;4.476;2022-12-04T15:02:08;26.77;;;12.02;;
44810;SDS011;30526;52.184;4.476;2022-12-04T15:04:36;30.27;;;13.55;;
44810;SDS011;30526;52.184;4.476;2022-12-04T15:07:09;29.70;;;12.35;;
44810;SDS011;30526;52.184;4.476;2022-12-04T15:09:36;28.45;;;11.25;;
44810;SDS011;30526;52.184;4.476;2022-12-04T15:12:22;32.15;;;12.95;;
44810;SDS011;30526;52.184;4.476;2022-12-04T15:14:58;23.30;;;10.65;;
44810;SDS011;30526;52.184;4.476;2022-12-04T15:17:24;24.87;;;8.87;;
44810;SDS011;30526;52.184;4.476;2022-12-04T15:19:50;29.83;;;13.55;;
44810;SDS011;30526;52.184;4.476;2022-12-04T15:22:23;28.80;;;13.32;;
44810;SDS011;30526;52.184;4.476;2022-12-04T15:24:50;34.83;;;14.02;;
44810;SDS011;30526;52.184;4.476;2022-12-04T15:27:18;33.05;;;14.55;;
44810;SDS011;30526;52.184;4.476;2022-12-04T15:29:45;36.00;;;15.35;;
44810;SDS011;30526;52.184;4.476;2022-12-04T15:32:13;35.20;;;15.80;;
44810;SDS011;30526;52.184;4.476;2022-12-04T15:34:41;32.88;;;14.95;;
44810;SDS011;30526;52.184;4.476;2022-12-04T15:37:13;28.70;;;11.63;;
44810;SDS011;30526;52.184;4.476;2022-12-04T15:39:41;40.58;;;17.17;;
44810;SDS011;30526;52.184;4.476;2022-12-04T15:42:18;31.85;;;13.65;;
44810;SDS011;30526;52.184;4.476;2022-12-04T15:47:21;39.63;;;16.88;;
44810;SDS011;30526;52.184;4.476;2022-12-04T15:49:48;39.38;;;16.92;;
44810;SDS011;30526;52.184;4.476;2022-12-04T15:52:18;44.40;;;18.20;;
44810;SDS011;30526;52.184;4.476;2022-12-04T15:54:54;36.80;;;16.70;;
44810;SDS011;30526;52.184;4.476;2022-12-04T15:57:24;46.15;;;23.00;;
44810;SDS011;30526;52.184;4.476;2022-12-04T15:59:51;43.00;;;18.55;;
44810;SDS011;30526;52.184;4.476;2022-12-04T16:02:29;50.13;;;20.58;;
44810;SDS011;30526;52.184;4.476;2022-12-04T16:07:25;46.20;;;18.52;;
44810;SDS011;30526;52.184;4.476;2022-12-04T16:09:53;46.25;;;19.67;;
44810;SDS011;30526;52.184;4.476;2022-12-04T16:12:22;48.42;;;20.52;;
44810;SDS011;30526;52.184;4.476;2022-12-04T16:14:51;43.95;;;20.40;;
44810;SDS011;30526;52.184;4.476;2022-12-04T16:17:17;50.17;;;21.30;;
44810;SDS011;30526;52.184;4.476;2022-12-04T16:19:43;51.15;;;21.10;;
44810;SDS011;30526;52.184;4.476;2022-12-04T16:22:11;52.53;;;22.55;;
44810;SDS011;30526;52.184;4.476;2022-12-04T16:24:38;47.97;;;21.88;;
44810;SDS011;30526;52.184;4.476;2022-12-04T16:27:08;54.25;;;21.42;;
44810;SDS011;30526;52.184;4.476;2022-12-04T16:29:34;52.40;;;21.77;;
44810;SDS011;30526;52.184;4.476;2022-12-04T16:32:00;47.08;;;21.33;;
44810;SDS011;30526;52.184;4.476;2022-12-04T16:34:26;56.70;;;22.38;;
44810;SDS011;30526;52.184;4.476;2022-12-04T16:36:52;55.78;;;23.48;;
44810;SDS011;30526;52.184;4.476;2022-12-04T16:39:18;51.25;;;22.20;;
44810;SDS011;30526;52.184;4.476;2022-12-04T16:41:44;54.13;;;23.65;;
44810;SDS011;30526;52.184;4.476;2022-12-04T16:44:12;57.28;;;23.50;;
44810;SDS011;30526;52.184;4.476;2022-12-04T16:46:38;55.55;;;23.40;;
44810;SDS011;30526;52.184;4.476;2022-12-04T16:49:04;49.15;;;22.08;;
44810;SDS011;30526;52.184;4.476;2022-12-04T16:51:31;49.85;;;22.20;;